createdAt,value
2022-10-01T00:01:10.674Z,100059.28
2022-10-01T00:03:37.533Z,100055.97
2022-10-01T00:06:10.762Z,100060.94
2022-10-01T00:08:40.115Z,100055.41
2022-10-01T00:11:14.337Z,100051.09
2022-10-01T00:13:43.252Z,100047.59
2022-10-01T00:16:12.662Z,100054.41
2022-10-01T00:18:41.078Z,100040.34
2022-10-01T00:21:10.156Z,100040.63
2022-10-01T00:23:37.121Z,100035.94
2022-10-01T00:26:21.848Z,100043.75
2022-10-01T00:28:54.167Z,100029.41
2022-10-01T00:31:21.330Z,100017.81
2022-10-01T00:33:48.665Z,100032.06
2022-10-01T00:36:15.411Z,100033.53
2022-10-01T00:38:42.383Z,100026.09
2022-10-01T00:41:10.020Z,100026.81
2022-10-01T00:43:43.293Z,100033.81
2022-10-01T00:46:15.577Z,100030.59
2022-10-01T00:48:51.955Z,100031.66
2022-10-01T00:51:18.833Z,100032.75
2022-10-01T00:53:46.591Z,100034.03
2022-10-01T00:56:13.642Z,100037.09
2022-10-01T00:58:40.797Z,100043.50
2022-10-01T01:01:08.050Z,100036.78
2022-10-01T01:03:34.975Z,100045.63
2022-10-01T01:06:01.733Z,100045.38
2022-10-01T01:08:29.440Z,100044.44
2022-10-01T01:11:08.096Z,100049.13
2022-10-01T01:13:43.542Z,100033.84
2022-10-01T01:16:20.992Z,100026.41
2022-10-01T01:19:04.862Z,100038.41
2022-10-01T01:21:45.538Z,100041.44
2022-10-01T01:24:33.130Z,100037.97
2022-10-01T01:27:09.029Z,100037.47
2022-10-01T01:29:38.374Z,100028.66
2022-10-01T01:32:14.789Z,100029.84
2022-10-01T01:34:45.550Z,100022.03
2022-10-01T01:37:17.955Z,100014.56
2022-10-01T01:39:50.305Z,100008.91
2022-10-01T01:42:29.292Z,99996.84
2022-10-01T01:44:59.978Z,99994.81
2022-10-01T01:47:30.751Z,100000.97
2022-10-01T01:49:58.617Z,100000.16
2022-10-01T01:52:25.577Z,99997.31
2022-10-01T01:54:52.657Z,99986.19
2022-10-01T01:57:20.322Z,99992.34
2022-10-01T01:59:47.320Z,99979.41
2022-10-01T02:02:17.850Z,99969.91
2022-10-01T02:04:55.767Z,99974.91
2022-10-01T02:08:20.701Z,99962.63
2022-10-01T02:11:21.799Z,99959.78
2022-10-01T02:13:55.138Z,99956.63
2022-10-01T02:16:27.697Z,99939.88
2022-10-01T02:19:13.756Z,99953.28
2022-10-01T02:21:55.852Z,99948.69
2022-10-01T02:24:22.680Z,99944.00
2022-10-01T02:26:53.423Z,99926.44
2022-10-01T02:29:22.606Z,99921.63
2022-10-01T02:31:55.728Z,99915.13
2022-10-01T02:34:27.179Z,99910.16
2022-10-01T02:36:56.121Z,99903.66
2022-10-01T02:39:27.225Z,99897.88
2022-10-01T02:41:55.576Z,99873.66
2022-10-01T02:44:30.360Z,99884.75
2022-10-01T02:47:26.559Z,99873.94
2022-10-01T02:49:54.507Z,99858.19
2022-10-01T02:52:44.521Z,99865.50
2022-10-01T02:55:16.719Z,99864.00
2022-10-01T02:57:43.695Z,99855.03
2022-10-01T03:00:14.731Z,99848.91
2022-10-01T03:02:41.537Z,99854.22
2022-10-01T03:05:08.972Z,99840.75
2022-10-01T03:07:36.321Z,99839.75
2022-10-01T03:10:04.879Z,99835.97
2022-10-01T03:12:31.590Z,99836.81
2022-10-01T03:14:58.250Z,99838.94
2022-10-01T03:17:25.264Z,99840.44
2022-10-01T03:19:52.034Z,99832.97
2022-10-01T03:22:22.777Z,99830.97
2022-10-01T03:24:53.304Z,99826.81
2022-10-01T03:27:21.516Z,99824.69
2022-10-01T03:29:48.888Z,99820.56
2022-10-01T03:32:16.001Z,99796.00
2022-10-01T03:34:42.751Z,99799.84
2022-10-01T03:37:09.564Z,99796.00
2022-10-01T03:39:36.488Z,99797.47
2022-10-01T03:42:05.964Z,99784.06
2022-10-01T03:44:33.792Z,99774.75
2022-10-01T03:47:00.664Z,99788.72
2022-10-01T03:49:28.010Z,99798.66
2022-10-01T03:51:55.528Z,99786.72
2022-10-01T03:54:22.703Z,99774.91
2022-10-01T03:56:49.598Z,99777.94
2022-10-01T03:59:16.378Z,99777.09
2022-10-01T04:01:43.205Z,99778.22
2022-10-01T04:04:12.503Z,99775.22
2022-10-01T04:06:39.195Z,99779.69
2022-10-01T04:09:06.018Z,99765.75
2022-10-01T04:11:32.990Z,99762.41
2022-10-01T04:14:00.001Z,99764.59
2022-10-01T04:16:26.958Z,99761.75
2022-10-01T04:18:54.103Z,99761.63
2022-10-01T04:21:21.098Z,99776.41
2022-10-01T04:23:48.425Z,99774.03
2022-10-01T04:26:15.395Z,99768.59
2022-10-01T04:28:45.209Z,99778.06
2022-10-01T04:31:24.597Z,99784.53
2022-10-01T04:33:53.798Z,99765.94
2022-10-01T04:36:20.832Z,99763.75
2022-10-01T04:38:47.638Z,99751.47
2022-10-01T04:41:14.941Z,99738.84
2022-10-01T04:43:41.707Z,99731.53
2022-10-01T04:46:08.631Z,99728.88
2022-10-01T04:48:35.351Z,99723.91
2022-10-01T04:51:01.974Z,99731.53
2022-10-01T04:53:29.265Z,99730.56
2022-10-01T04:55:56.355Z,99733.53
2022-10-01T04:58:23.017Z,99741.78
2022-10-01T05:00:50.380Z,99734.81
2022-10-01T05:03:17.666Z,99733.81
2022-10-01T05:05:44.591Z,99744.41
2022-10-01T05:08:11.387Z,99722.38
2022-10-01T05:10:38.074Z,99740.59
2022-10-01T05:13:04.830Z,99702.81
2022-10-01T05:15:31.709Z,99728.16
2022-10-01T05:17:58.533Z,99739.28
2022-10-01T05:20:27.096Z,99731.13
2022-10-01T05:22:56.482Z,99739.28
2022-10-01T05:25:23.744Z,99698.03
2022-10-01T05:27:50.647Z,99706.03
2022-10-01T05:30:22.278Z,99716.78
2022-10-01T05:33:00.984Z,99724.66
2022-10-01T05:35:28.565Z,99721.69
2022-10-01T05:37:59.973Z,99706.13
2022-10-01T05:40:28.797Z,99727.69
2022-10-01T05:42:56.735Z,99730.00
2022-10-01T05:45:23.758Z,99716.06
2022-10-01T05:48:03.114Z,99714.94
2022-10-01T05:50:32.093Z,99723.53
2022-10-01T05:52:59.917Z,99733.25
2022-10-01T05:55:32.031Z,99713.38
2022-10-01T05:58:10.682Z,99734.19
2022-10-01T06:00:39.478Z,99726.84
2022-10-01T06:03:07.276Z,99708.50
2022-10-01T06:05:36.064Z,99717.31
2022-10-01T06:08:06.502Z,99706.88
2022-10-01T06:10:33.365Z,99715.34
2022-10-01T06:13:01.923Z,99727.38
2022-10-01T06:15:29.511Z,99699.47
2022-10-01T06:17:56.142Z,99713.25
2022-10-01T06:20:24.203Z,99723.78
2022-10-01T06:22:56.218Z,99725.75
2022-10-01T06:25:23.450Z,99729.59
2022-10-01T06:27:59.749Z,99728.78
2022-10-01T06:30:28.531Z,99730.91
2022-10-01T06:33:05.527Z,99724.84
2022-10-01T06:35:33.898Z,99725.19
2022-10-01T06:38:03.886Z,99736.59
2022-10-01T06:40:32.058Z,99735.38
2022-10-01T06:42:59.057Z,99723.00
2022-10-01T06:45:27.228Z,99754.03
2022-10-01T06:48:03.940Z,99738.13
2022-10-01T06:50:35.053Z,99737.78
2022-10-01T06:53:02.848Z,99725.47
2022-10-01T06:55:32.594Z,99742.94
2022-10-01T06:58:01.511Z,99744.13
2022-10-01T07:00:29.815Z,99736.97
2022-10-01T07:02:56.942Z,99747.91
2022-10-01T07:05:24.726Z,99742.22
2022-10-01T07:07:54.745Z,99722.38
2022-10-01T07:10:23.422Z,99751.94
2022-10-01T07:12:53.826Z,99755.41
2022-10-01T07:15:25.815Z,99757.63
2022-10-01T07:17:52.815Z,99747.00
2022-10-01T07:20:21.197Z,99760.00
2022-10-01T07:22:48.993Z,99769.16
2022-10-01T07:25:16.059Z,99759.47
2022-10-01T07:27:42.832Z,99755.44
2022-10-01T07:30:10.099Z,99747.16
2022-10-01T07:32:36.893Z,99764.69
2022-10-01T07:35:05.092Z,99763.88
2022-10-01T07:37:31.997Z,99762.94
2022-10-01T07:39:58.789Z,99762.25
2022-10-01T07:42:26.613Z,99771.06
2022-10-01T07:44:53.877Z,99761.06
2022-10-01T07:47:20.743Z,99764.63
2022-10-01T07:49:47.436Z,99767.94
2022-10-01T07:52:14.292Z,99756.34
2022-10-01T07:54:41.063Z,99763.03
2022-10-01T07:57:08.149Z,99768.97
2022-10-01T07:59:35.203Z,99770.44
2022-10-01T08:02:02.185Z,99781.72
2022-10-01T08:04:47.774Z,99777.22
2022-10-01T08:07:15.575Z,99775.63
2022-10-01T08:09:42.226Z,99788.34
2022-10-01T08:12:08.945Z,99770.69
2022-10-01T08:14:35.816Z,99788.38
2022-10-01T08:17:02.716Z,99792.22
2022-10-01T08:19:30.194Z,99796.34
2022-10-01T08:21:56.841Z,99778.63
2022-10-01T08:24:23.567Z,99801.44
2022-10-01T08:26:57.626Z,99806.69
2022-10-01T08:29:24.471Z,99806.06
2022-10-01T08:31:51.337Z,99801.16
2022-10-01T08:34:18.607Z,99783.84
2022-10-01T08:36:45.908Z,99795.94
2022-10-01T08:39:13.878Z,99793.53
2022-10-01T08:41:49.853Z,99803.88
2022-10-01T08:44:23.838Z,99786.19
2022-10-01T08:46:51.923Z,99810.13
2022-10-01T08:49:33.230Z,99802.47
2022-10-01T08:52:14.636Z,99792.31
2022-10-01T08:54:48.230Z,99806.13
2022-10-01T08:57:21.070Z,99819.34
2022-10-01T09:00:00.286Z,99830.47
2022-10-01T09:02:32.704Z,99814.00
2022-10-01T09:05:02.933Z,99823.72
2022-10-01T09:07:57.259Z,99821.72
2022-10-01T09:10:52.007Z,99834.19
2022-10-01T09:13:50.574Z,99838.13
2022-10-01T09:16:47.981Z,99829.88
2022-10-01T09:19:36.637Z,99843.84
2022-10-01T09:22:27.915Z,99834.84
2022-10-01T09:25:22.342Z,99831.59
2022-10-01T09:27:49.842Z,99829.72
2022-10-01T09:30:23.568Z,99838.78
2022-10-01T09:33:20.449Z,99849.09
2022-10-01T09:35:47.308Z,99855.31
2022-10-01T09:38:24.824Z,99850.13
2022-10-01T09:40:56.823Z,99852.44
2022-10-01T09:43:34.658Z,99840.31
2022-10-01T09:46:03.807Z,99847.94
2022-10-01T09:49:13.969Z,99847.72
2022-10-01T09:51:48.617Z,99849.38
2022-10-01T09:54:36.662Z,99848.16
2022-10-01T09:57:08.230Z,99842.38
2022-10-01T09:59:44.147Z,99831.63
2022-10-01T10:02:22.713Z,99832.66
2022-10-01T10:05:02.542Z,99851.22
2022-10-01T10:07:32.592Z,99845.69
2022-10-01T10:10:09.795Z,99858.91
2022-10-01T10:12:37.891Z,99872.06
2022-10-01T10:15:10.106Z,99874.94
2022-10-01T10:17:40.986Z,99876.78
2022-10-01T10:20:19.630Z,99878.66
2022-10-01T10:22:46.320Z,99847.72
2022-10-01T10:25:20.384Z,99855.09
2022-10-01T10:27:55.999Z,99857.38
2022-10-01T10:30:24.467Z,99856.63
2022-10-01T10:32:52.786Z,99849.34
2022-10-01T10:35:25.836Z,99850.63
2022-10-01T10:37:54.985Z,99849.38
2022-10-01T10:40:29.304Z,99842.75
2022-10-01T10:42:58.636Z,99853.84
2022-10-01T10:45:38.837Z,99865.50
2022-10-01T10:48:12.034Z,99875.88
2022-10-01T10:50:41.143Z,99865.88
2022-10-01T10:53:22.883Z,99891.84
2022-10-01T10:55:59.520Z,99886.94
2022-10-01T10:58:29.347Z,99913.22
2022-10-01T11:00:59.128Z,99937.06
2022-10-01T11:03:32.325Z,99919.38
2022-10-01T11:06:09.572Z,99921.97
2022-10-01T11:08:39.625Z,99885.91
2022-10-01T11:11:12.487Z,99873.75
2022-10-01T11:14:00.375Z,99864.84
2022-10-01T11:16:45.169Z,99865.50
2022-10-01T11:19:30.472Z,99871.13
2022-10-01T11:22:03.090Z,99876.78
2022-10-01T11:25:01.228Z,99872.91
2022-10-01T11:28:39.604Z,99884.94
2022-10-01T11:31:51.525Z,99886.53
2022-10-01T11:34:42.080Z,99888.16
2022-10-01T11:37:12.921Z,99884.97
2022-10-01T11:39:43.568Z,99889.22
2022-10-01T11:42:22.233Z,99880.91
2022-10-01T11:45:04.694Z,99878.91
2022-10-01T11:47:40.661Z,99874.28
2022-10-01T11:50:21.571Z,99870.72
2022-10-01T11:53:02.545Z,99875.97
2022-10-01T11:56:14.571Z,99885.03
2022-10-01T11:59:02.331Z,99883.81
2022-10-01T12:02:23.560Z,99875.72
2022-10-01T12:05:24.535Z,99853.44
2022-10-01T12:12:16.490Z,99887.00
2022-10-01T12:15:04.130Z,99894.84
2022-10-01T12:17:49.270Z,99907.88
2022-10-01T12:20:24.275Z,99900.53
2022-10-01T12:22:53.343Z,99913.72
2022-10-01T12:25:29.143Z,99900.91
2022-10-01T12:28:10.787Z,99907.41
2022-10-01T12:30:54.795Z,99895.91
2022-10-01T12:33:53.794Z,99897.97
2022-10-01T12:36:37.782Z,99900.91
2022-10-01T12:39:29.540Z,99908.84
2022-10-01T12:42:31.412Z,99909.63
2022-10-01T12:45:10.680Z,99892.44
2022-10-01T12:47:55.479Z,99887.53
2022-10-01T12:51:03.035Z,99915.66
2022-10-01T12:53:37.802Z,99989.81
2022-10-01T13:00:02.761Z,100035.28
2022-10-01T13:02:51.230Z,100024.09
2022-10-01T13:05:29.681Z,100028.31
2022-10-01T13:08:09.377Z,100030.63
2022-10-01T13:10:42.851Z,100058.81
2022-10-01T13:13:33.551Z,100068.16
2022-10-01T13:16:28.676Z,100070.91
2022-10-01T13:19:17.435Z,100048.31
2022-10-01T13:21:50.371Z,100061.22
2022-10-01T13:24:22.296Z,100065.81
2022-10-01T13:27:12.311Z,100059.22
2022-10-01T13:30:01.801Z,100062.81
2022-10-01T13:33:05.224Z,100075.41
2022-10-01T13:35:41.554Z,100083.38
2022-10-01T13:38:47.766Z,100096.03
2022-10-01T13:41:30.101Z,100094.38
2022-10-01T13:54:50.413Z,100075.66
2022-10-01T13:57:36.384Z,100085.66
2022-10-01T14:00:03.157Z,100077.38
2022-10-01T14:02:36.514Z,100081.34
2022-10-01T14:05:17.580Z,100075.13
2022-10-01T14:07:48.359Z,100081.25
2022-10-01T14:10:16.766Z,100060.81
2022-10-01T14:13:05.419Z,100077.47
2022-10-01T14:16:00.463Z,100069.38
2022-10-01T14:18:33.273Z,100068.38
2022-10-01T14:21:37.346Z,100087.91
2022-10-01T14:24:06.712Z,100095.97
2022-10-01T14:26:39.183Z,100090.94
2022-10-01T14:29:35.068Z,100099.03
2022-10-01T14:32:21.029Z,100103.00
2022-10-01T14:35:28.420Z,100112.25
2022-10-01T14:38:04.383Z,100114.22
2022-10-01T14:40:40.278Z,100114.34
2022-10-01T14:43:26.237Z,100137.59
2022-10-01T14:45:55.710Z,100141.72
2022-10-01T14:48:23.271Z,100140.25
2022-10-01T14:50:53.636Z,100145.03
2022-10-01T14:53:23.982Z,100150.16
2022-10-01T14:55:54.309Z,100139.16
2022-10-01T14:58:26.639Z,100135.38
2022-10-01T15:00:55.399Z,100123.31
2022-10-01T15:03:22.537Z,100121.47
2022-10-01T15:05:50.353Z,100154.28
2022-10-01T15:08:35.747Z,100149.34
2022-10-01T15:11:06.875Z,100144.84
2022-10-01T15:13:40.421Z,100149.50
2022-10-01T15:16:17.897Z,100154.84
2022-10-01T15:18:57.437Z,100153.91
2022-10-01T15:21:30.354Z,100163.72
2022-10-01T15:23:59.900Z,100168.81
2022-10-01T15:26:27.784Z,100169.50
2022-10-01T15:29:03.222Z,100203.91
2022-10-01T15:31:30.155Z,100171.91
2022-10-01T15:33:57.220Z,100183.78
2022-10-01T15:36:24.087Z,100200.13
2022-10-01T15:38:51.633Z,100185.94
2022-10-01T15:41:31.715Z,100193.13
2022-10-01T15:44:04.667Z,100201.47
2022-10-01T15:46:35.410Z,100196.06
2022-10-01T15:49:14.808Z,100209.44
2022-10-01T15:52:12.267Z,100213.59
2022-10-01T15:54:41.419Z,100217.38
2022-10-01T15:57:09.032Z,100222.09
2022-10-01T15:59:37.115Z,100226.31
2022-10-01T16:02:09.302Z,100231.38
2022-10-01T16:04:36.057Z,100240.28
2022-10-01T16:07:02.771Z,100245.00
2022-10-01T16:09:30.426Z,100236.50
2022-10-01T16:12:18.596Z,100242.09
2022-10-01T16:15:03.131Z,100257.53
2022-10-01T16:17:35.322Z,100270.50
2022-10-01T16:20:17.076Z,100267.34
2022-10-01T16:22:43.968Z,100275.53
2022-10-01T16:25:19.713Z,100283.78
2022-10-01T16:27:58.796Z,100295.50
2022-10-01T16:30:27.612Z,100295.00
2022-10-01T16:32:54.994Z,100304.41
2022-10-01T16:35:23.279Z,100305.22
2022-10-01T16:37:52.074Z,100307.22
2022-10-01T16:40:20.300Z,100320.91
2022-10-01T16:42:49.465Z,100321.94
2022-10-01T16:45:28.148Z,100324.63
2022-10-01T16:47:58.463Z,100336.09
2022-10-01T16:50:26.095Z,100332.66
2022-10-01T16:52:53.777Z,100356.09
2022-10-01T16:55:27.203Z,100367.00
2022-10-01T16:57:54.882Z,100364.59
2022-10-01T17:00:24.024Z,100383.72
2022-10-01T17:02:50.877Z,100374.03
2022-10-01T17:05:20.253Z,100388.06
2022-10-01T17:07:47.110Z,100380.16
2022-10-01T17:10:14.695Z,100400.59
2022-10-01T17:12:42.168Z,100392.78
2022-10-01T17:15:15.743Z,100394.53
2022-10-01T17:17:42.364Z,100395.63
2022-10-01T17:20:09.993Z,100396.91
2022-10-01T17:22:37.537Z,100400.59
2022-10-01T17:25:04.622Z,100408.63
2022-10-01T17:27:31.229Z,100426.44
2022-10-01T17:29:57.910Z,100431.78
2022-10-01T17:32:24.572Z,100436.41
2022-10-01T17:34:53.823Z,100448.41
2022-10-01T17:37:23.949Z,100459.56
2022-10-01T17:39:50.969Z,100461.03
2022-10-01T17:42:18.177Z,100474.81
2022-10-01T17:44:45.536Z,100469.72
2022-10-01T17:47:12.650Z,100475.22
2022-10-01T17:49:39.600Z,100471.41
2022-10-01T17:52:06.368Z,100476.94
2022-10-01T17:54:33.328Z,100482.66
2022-10-01T17:57:00.104Z,100477.00
2022-10-01T17:59:26.940Z,100492.13
2022-10-01T18:01:54.506Z,100493.25
2022-10-01T18:04:21.317Z,100501.97
2022-10-01T18:06:49.002Z,100515.16
2022-10-01T18:09:17.213Z,100514.66
2022-10-01T18:11:43.928Z,100520.56
2022-10-01T18:14:10.739Z,100528.41
2022-10-01T18:16:39.843Z,100534.59
2022-10-01T18:21:53.531Z,100556.31
2022-10-01T18:24:20.247Z,100560.81
2022-10-01T18:26:47.356Z,100566.84
2022-10-01T18:29:19.419Z,100569.53
2022-10-01T18:31:46.767Z,100576.38
2022-10-01T18:34:25.317Z,100585.91
2022-10-01T18:36:51.901Z,100589.75
2022-10-01T18:39:21.109Z,100603.25
2022-10-01T18:41:49.460Z,100599.56
2022-10-01T18:44:20.468Z,100590.91
2022-10-01T18:46:50.662Z,100609.75
2022-10-01T18:49:39.244Z,100610.22
2022-10-01T18:52:18.013Z,100611.91
2022-10-01T18:54:53.798Z,100608.22
2022-10-01T18:57:39.091Z,100608.56
2022-10-01T19:00:09.006Z,100610.38
2022-10-01T19:03:02.331Z,100607.22
2022-10-01T19:05:48.952Z,100618.59
2022-10-01T19:08:46.978Z,100626.41
2022-10-01T19:11:31.508Z,100628.75
2022-10-01T19:14:16.774Z,100627.91
2022-10-01T19:17:25.220Z,100631.91
2022-10-01T19:20:03.460Z,100631.09
2022-10-01T19:23:06.486Z,100644.25
2022-10-01T19:26:17.617Z,100638.91
2022-10-01T19:29:27.173Z,100645.09
2022-10-01T19:32:09.697Z,100640.25
2022-10-01T19:34:51.062Z,100640.25
2022-10-01T19:37:30.993Z,100637.56
2022-10-01T19:40:05.533Z,100651.41
2022-10-01T19:42:38.599Z,100646.22
2022-10-01T19:45:14.692Z,100645.72
2022-10-01T19:47:47.945Z,100658.06
2022-10-01T19:50:21.317Z,100654.88
2022-10-01T19:52:51.683Z,100676.41
2022-10-01T19:55:25.503Z,100681.25
2022-10-01T19:57:53.059Z,100683.91
2022-10-01T20:00:22.139Z,100680.56
2022-10-01T20:02:54.687Z,100689.06
2022-10-01T20:05:30.058Z,100689.22
2022-10-01T20:08:15.354Z,100701.91
2022-10-01T20:10:54.874Z,100702.91
2022-10-01T20:13:45.342Z,100716.06
2022-10-01T20:16:36.358Z,100722.91
2022-10-01T20:19:42.661Z,100722.91
2022-10-01T20:22:23.104Z,100736.94
2022-10-01T20:25:00.699Z,100749.25
2022-10-01T20:28:10.865Z,100737.94
2022-10-01T20:30:54.768Z,100727.41
2022-10-01T20:33:32.786Z,100738.09
2022-10-01T20:36:06.229Z,100723.41
2022-10-01T20:38:47.944Z,100733.06
2022-10-01T20:41:19.724Z,100743.25
2022-10-01T20:43:49.357Z,100748.75
2022-10-01T20:46:32.746Z,100750.25
2022-10-01T20:49:24.845Z,100732.09
2022-10-01T20:52:02.680Z,100750.75
2022-10-01T20:54:51.969Z,100738.59
2022-10-01T20:57:52.793Z,100753.91
2022-10-01T21:00:21.663Z,100763.91
2022-10-01T21:02:58.887Z,100762.56
2022-10-01T21:05:48.891Z,100756.56
2022-10-01T21:08:37.932Z,100756.88
2022-10-01T21:11:17.176Z,100771.84
2022-10-01T21:13:53.905Z,100767.16
2022-10-01T21:16:37.325Z,100770.78
2022-10-01T21:19:38.795Z,100768.09
2022-10-01T21:22:08.272Z,100776.56
2022-10-01T21:24:50.341Z,100776.72
2022-10-01T21:27:38.085Z,100782.97
2022-10-01T21:30:23.283Z,100769.63
2022-10-01T21:33:06.233Z,100788.09
2022-10-01T21:35:52.767Z,100785.41
2022-10-01T21:38:28.912Z,100798.50
2022-10-01T21:41:23.785Z,100791.81
2022-10-01T21:44:22.011Z,100805.94
2022-10-01T21:47:07.231Z,100806.00
2022-10-01T21:49:42.989Z,100813.88
2022-10-01T21:52:37.695Z,100816.81
2022-10-01T21:55:23.029Z,100808.31
2022-10-01T21:57:55.591Z,100811.13
2022-10-01T22:00:26.881Z,100817.44
2022-10-01T22:03:37.994Z,100814.63
2022-10-01T22:06:24.539Z,100813.97
2022-10-01T22:09:18.917Z,100811.91
2022-10-01T22:11:53.631Z,100821.94
2022-10-01T22:14:21.959Z,100827.56
2022-10-01T22:16:57.486Z,100827.41
2022-10-01T22:19:37.424Z,100817.91
2022-10-01T22:22:14.985Z,100828.94
2022-10-01T22:24:48.119Z,100828.47
2022-10-01T22:27:33.757Z,100828.16
2022-10-01T22:30:06.453Z,100830.53
2022-10-01T22:33:06.124Z,100832.19
2022-10-01T22:35:39.245Z,100831.56
2022-10-01T22:38:13.819Z,100827.31
2022-10-01T22:40:52.965Z,100841.03
2022-10-01T22:43:19.723Z,100840.78
2022-10-01T22:46:10.450Z,100838.59
2022-10-01T22:48:45.345Z,100847.25
2022-10-01T22:51:50.271Z,100852.88
2022-10-01T22:54:21.617Z,100859.38
2022-10-01T22:56:58.973Z,100849.50
2022-10-01T22:59:32.327Z,100846.84
2022-10-01T23:02:12.199Z,100850.78
2022-10-01T23:05:00.880Z,100854.97
2022-10-01T23:07:27.484Z,100859.47
2022-10-01T23:10:13.345Z,100859.47
2022-10-01T23:13:01.613Z,100864.63
2022-10-01T23:15:42.915Z,100868.13
2022-10-01T23:18:35.470Z,100873.13
2022-10-01T23:21:34.546Z,100873.66
2022-10-01T23:24:22.920Z,100883.69
2022-10-01T23:26:57.527Z,100886.34
2022-10-01T23:29:53.561Z,100883.22
2022-10-01T23:32:38.286Z,100892.59
2022-10-01T23:35:09.375Z,100879.13
2022-10-01T23:37:55.117Z,100877.97
2022-10-01T23:40:25.938Z,100883.97
2022-10-01T23:43:10.779Z,100884.97
2022-10-01T23:45:54.989Z,100890.28
2022-10-01T23:48:31.379Z,100892.28
2022-10-01T23:51:06.437Z,100890.28
2022-10-01T23:53:47.871Z,100899.97
2022-10-01T23:56:38.858Z,100908.41
2022-10-01T23:59:33.624Z,100901.25
